Linzy — SIRU — position and weather

sailwx.info

Track history (hours):
 
Tides and Currents Weather Stations Pressure Air Temp Water Temp Dewpoint Dewpoint Depression Visibility Wind Speed Wind Dir Waves Ship Positions

Linzy

Last reported at 2017-Jan-17 16:17 UTC. Time now 2017-Jan-19 21:31 UTC.
Position N 55°33' E 014°25'.

Length 15 m.

Type: Fishing. MMSI: 265507290.

Date/timePositionNaut miles runAvg speedWind from/ knotsBaromVisibWave heightAir tempDewpointWater temp
2017-Jan-17 16:17N 55°33' E 014°25'5 7.3
2017-Jan-17 15:32N 55°30' E 014°33'5 4.7
2017-Jan-17 14:33N 55°28' E 014°40'3 2.9
2017-Jan-17 13:33N 55°28' E 014°45'3 2.9
2017-Jan-17 12:33N 55°28' E 014°50'2 2.1
2017-Jan-17 11:25N 55°28' E 014°54'3 2.4
2017-Jan-17 10:20N 55°28' E 014°50'4 3.3
2017-Jan-17 09:12N 55°28' E 014°43'2 3.3
2017-Jan-17 08:29N 55°27' E 014°39'4 3.2
2017-Jan-17 07:11N 55°24' E 014°35'3 4.3
2017-Jan-17 06:33N 55°26' E 014°31'9 0.7
2017-Jan-16 17:11N 55°33' E 014°22'4 4.9
2017-Jan-16 16:17N 55°34' E 014°29'12 3.3
2017-Jan-16 12:32N 55°30' E 014°50'2 0.9
2017-Jan-16 10:33N 55°28' E 014°50'8 3.2
2017-Jan-16 08:08N 55°26' E 014°37'3 3.3
2017-Jan-16 07:19N 55°24' E 014°35'4 5.1
2017-Jan-16 06:32N 55°26' E 014°29'7 0.5
2017-Jan-15 15:27N 55°33' E 014°29'4 4.9
2017-Jan-15 14:32N 55°31' E 014°36'5 5.1
2017-Jan-15 13:33N 55°29' E 014°44'1 0.5
2017-Jan-15 12:18N 55°29' E 014°44'3 3.1
2017-Jan-15 11:21N 55°28' E 014°39'3 3.2
2017-Jan-15 10:26N 55°26' E 014°36'3 3.3
2017-Jan-15 09:33N 55°23' E 014°34'1 0.7
2017-Jan-15 08:32N 55°24' E 014°34'2 2.3
2017-Jan-15 07:33N 55°22' E 014°31'5 4.3
2017-Jan-15 06:28N 55°25' E 014°26'8 8.4
2017-Jan-15 05:31N 55°33' E 014°22'4 0.1
2017-Jan-13 15:25N 55°31' E 014°29'4 5.0
2017-Jan-13 14:32N 55°29' E 014°36'2 2.1
2017-Jan-13 13:25N 55°29' E 014°40'1 0.6
2017-Jan-13 11:32N 55°29' E 014°42'3 3.0
2017-Jan-13 10:24N 55°27' E 014°37'2 2.7
2017-Jan-13 09:33N 55°25' E 014°34'1 1.0
2017-Jan-13 08:31N 55°24' E 014°34'3 3.0
2017-Jan-13 07:33N 55°22' E 014°31'4 3.7
2017-Jan-13 06:33N 55°25' E 014°27'8 7.8
2017-Jan-13 05:30N 55°33' E 014°22'  
2017-Jan-09 15:15N 55°34' E 014°24'5 7.0
2017-Jan-09 14:30N 55°34' E 014°33'6 3.0
2017-Jan-09 12:28N 55°32' E 014°43'3 2.1
2017-Jan-09 11:08N 55°29' E 014°42'1 1.8
2017-Jan-09 10:30N 55°29' E 014°40'6 2.8
2017-Jan-09 08:11N 55°23' E 014°34'2 3.3
2017-Jan-09 07:33N 55°22' E 014°31'4 3.6
2017-Jan-09 06:31N 55°25' E 014°26'8 7.7
2017-Jan-09 05:26N 55°33' E 014°23'2 0.1
2017-Jan-08 16:21N 55°34' E 014°24'2 0.1
2017-Jan-08 04:10N 55°33' E 014°21'0 0.0
2017-Jan-07 23:10N 55°33' E 014°21'  
Track history (hours):
 
Tides and Currents Weather Stations Pressure Air Temp Water Temp Dewpoint Dewpoint Depression Visibility Wind Speed Wind Dir Waves Ship Positions

Linzy

Last reported at 2017-Jan-17 16:17 UTC. Time now 2017-Jan-19 21:31 UTC.
Position N 55°33' E 014°25'.

Length 15 m.

Type: Fishing. MMSI: 265507290.

Date/timePositionNaut miles runAvg speedWind from/ knotsBaromVisibWave heightAir tempDewpointWater temp
2017-Jan-17 16:17N 55°33' E 014°25'5 7.3
2017-Jan-17 15:32N 55°30' E 014°33'5 4.7
2017-Jan-17 14:33N 55°28' E 014°40'3 2.9
2017-Jan-17 13:33N 55°28' E 014°45'3 2.9
2017-Jan-17 12:33N 55°28' E 014°50'2 2.1
2017-Jan-17 11:25N 55°28' E 014°54'3 2.4
2017-Jan-17 10:20N 55°28' E 014°50'4 3.3
2017-Jan-17 09:12N 55°28' E 014°43'2 3.3
2017-Jan-17 08:29N 55°27' E 014°39'4 3.2
2017-Jan-17 07:11N 55°24' E 014°35'3 4.3
2017-Jan-17 06:33N 55°26' E 014°31'9 0.7
2017-Jan-16 17:11N 55°33' E 014°22'4 4.9
2017-Jan-16 16:17N 55°34' E 014°29'12 3.3
2017-Jan-16 12:32N 55°30' E 014°50'2 0.9
2017-Jan-16 10:33N 55°28' E 014°50'8 3.2
2017-Jan-16 08:08N 55°26' E 014°37'3 3.3
2017-Jan-16 07:19N 55°24' E 014°35'4 5.1
2017-Jan-16 06:32N 55°26' E 014°29'7 0.5
2017-Jan-15 15:27N 55°33' E 014°29'4 4.9
2017-Jan-15 14:32N 55°31' E 014°36'5 5.1
2017-Jan-15 13:33N 55°29' E 014°44'1 0.5
2017-Jan-15 12:18N 55°29' E 014°44'3 3.1
2017-Jan-15 11:21N 55°28' E 014°39'3 3.2
2017-Jan-15 10:26N 55°26' E 014°36'3 3.3
2017-Jan-15 09:33N 55°23' E 014°34'1 0.7
2017-Jan-15 08:32N 55°24' E 014°34'2 2.3
2017-Jan-15 07:33N 55°22' E 014°31'5 4.3
2017-Jan-15 06:28N 55°25' E 014°26'8 8.4
2017-Jan-15 05:31N 55°33' E 014°22'4 0.1
2017-Jan-13 15:25N 55°31' E 014°29'4 5.0
2017-Jan-13 14:32N 55°29' E 014°36'2 2.1
2017-Jan-13 13:25N 55°29' E 014°40'1 0.6
2017-Jan-13 11:32N 55°29' E 014°42'3 3.0
2017-Jan-13 10:24N 55°27' E 014°37'2 2.7
2017-Jan-13 09:33N 55°25' E 014°34'1 1.0
2017-Jan-13 08:31N 55°24' E 014°34'3 3.0
2017-Jan-13 07:33N 55°22' E 014°31'4 3.7
2017-Jan-13 06:33N 55°25' E 014°27'8 7.8
2017-Jan-13 05:30N 55°33' E 014°22'  
2017-Jan-09 15:15N 55°34' E 014°24'5 7.0
2017-Jan-09 14:30N 55°34' E 014°33'6 3.0
2017-Jan-09 12:28N 55°32' E 014°43'3 2.1
2017-Jan-09 11:08N 55°29' E 014°42'1 1.8
2017-Jan-09 10:30N 55°29' E 014°40'6 2.8
2017-Jan-09 08:11N 55°23' E 014°34'2 3.3
2017-Jan-09 07:33N 55°22' E 014°31'4 3.6
2017-Jan-09 06:31N 55°25' E 014°26'8 7.7
2017-Jan-09 05:26N 55°33' E 014°23'2 0.1
2017-Jan-08 16:21N 55°34' E 014°24'2 0.1
2017-Jan-08 04:10N 55°33' E 014°21'0 0.0
2017-Jan-07 23:10N 55°33' E 014°21'  

Dump ship's entire track history